Time;durP1;ratioP1;P1;durP2;ratioP2;P2;SDS_P1;SDS_P2;PMS_P1;PMS_P2;Temp;Humidity;BMP_temperature;BMP_pressure;BME280_temperature;BME280_humidity;BME280_pressure;Samples;Min_cycle;Max_cycle;Signal;HPM_P1;HPM_P2
2022/01/12 00:01:36;;;;;;;16.63;12.47;;;-5.90;99.90;;;;;;5096164;28;20855;-81
2022/01/12 00:04:02;;;;;;;20.37;13.87;;;-6.50;99.90;;;;;;5095069;28;20403;-80
2022/01/12 00:06:28;;;;;;;17.27;11.73;;;-8.80;99.90;;;;;;5095683;28;20267;-81
2022/01/12 00:08:55;;;;;;;18.60;13.33;;;-7.70;99.90;;;;;;5095320;28;20184;-80
2022/01/12 00:11:22;;;;;;;16.57;12.40;;;-9.10;99.90;;;;;;5095904;28;20551;-81
2022/01/12 00:13:51;;;;;;;21.57;12.30;;;-9.30;99.90;;;;;;5096056;28;20395;-81
2022/01/12 00:16:17;;;;;;;15.80;12.13;;;-9.20;99.90;;;;;;5095221;28;20398;-81
2022/01/12 00:18:45;;;;;;;18.63;13.93;;;-9.20;99.90;;;;;;5094290;28;20403;-80
2022/01/12 00:21:12;;;;;;;17.57;11.63;;;-9.40;99.90;;;;;;5096235;28;20409;-80
2022/01/12 00:23:39;;;;;;;20.60;12.00;;;-9.00;99.90;;;;;;5094864;28;21209;-80
2022/01/12 00:26:12;;;;;;;16.67;12.90;;;-9.00;99.90;;;;;;5095025;28;20486;-80
2022/01/12 00:34:11;;;;;;;18.27;11.43;;;-9.00;99.90;;;;;;5095301;28;20591;-80
2022/01/12 00:36:39;;;;;;;16.27;10.47;;;-8.90;99.90;;;;;;5094359;28;20399;-80
2022/01/12 00:39:09;;;;;;;17.20;12.23;;;-8.70;99.90;;;;;;5094764;28;20400;-81
2022/01/12 00:41:38;;;;;;;18.37;12.20;;;-6.90;99.90;;;;;;5094535;28;20733;-81
2022/01/12 00:44:08;;;;;;;17.33;11.97;;;-8.20;99.90;;;;;;5093961;28;20414;-81
2022/01/12 00:46:35;;;;;;;16.80;11.73;;;-8.00;99.90;;;;;;5094419;28;20407;-81
2022/01/12 00:49:00;;;;;;;17.33;12.63;;;-7.80;99.90;;;;;;5094411;28;20415;-80
2022/01/12 00:51:30;;;;;;;18.80;12.20;;;-7.00;99.90;;;;;;5095476;28;20453;-80
2022/01/12 00:53:57;;;;;;;16.47;11.63;;;-5.10;99.90;;;;;;5093884;28;20174;-80
2022/01/12 00:56:23;;;;;;;20.17;14.20;;;-7.50;99.90;;;;;;5095512;28;20395;-80
2022/01/12 00:58:50;;;;;;;17.53;11.20;;;-5.30;99.90;;;;;;5095545;28;20452;-80
2022/01/12 01:01:18;;;;;;;15.97;11.43;;;-7.10;99.90;;;;;;5094993;28;20493;-80
2022/01/12 01:03:43;;;;;;;15.37;10.53;;;-6.10;99.90;;;;;;5095053;28;20851;-80
2022/01/12 01:06:11;;;;;;;15.90;10.63;;;-7.70;99.90;;;;;;5095553;28;20403;-80
2022/01/12 01:08:37;;;;;;;18.63;12.13;;;-8.10;99.90;;;;;;5095290;28;20490;-80
2022/01/12 01:11:03;;;;;;;15.53;10.17;;;-8.60;99.90;;;;;;5094647;28;20447;-80
2022/01/12 01:13:35;;;;;;;18.33;13.20;;;-9.00;99.90;;;;;;5094342;28;20395;-81
2022/01/12 01:27:16;;;;;;;13.83;9.13;;;-8.50;99.90;;;;;;5095224;28;20399;-80
2022/01/12 01:29:41;;;;;;;17.43;11.97;;;-9.00;99.90;;;;;;5094876;28;20733;-81
2022/01/12 01:32:08;;;;;;;15.33;10.00;;;-7.70;99.90;;;;;;5097305;28;20229;-80
2022/01/12 01:34:36;;;;;;;11.53;9.47;;;-9.00;99.90;;;;;;5097852;28;20236;-81
2022/01/12 01:37:01;;;;;;;13.57;10.23;;;-7.80;99.90;;;;;;5098611;28;20407;-80
2022/01/12 01:39:28;;;;;;;17.17;10.80;;;-8.60;99.90;;;;;;5098406;28;20403;-80
2022/01/12 01:42:01;;;;;;;12.60;10.43;;;-8.90;99.90;;;;;;5098891;28;20170;-80
2022/01/12 01:55:21;;;;;;;19.10;10.67;;;-9.20;99.90;;;;;;5098260;28;20854;-80
2022/01/12 01:57:47;;;;;;;15.77;10.57;;;-9.30;99.90;;;;;;5098188;28;20396;-80
2022/01/12 02:00:17;;;;;;;15.27;9.40;;;-8.40;99.90;;;;;;5098485;28;20464;-80
2022/01/12 02:02:44;;;;;;;17.20;11.53;;;-9.20;99.90;;;;;;5097416;28;20220;-80
2022/01/12 02:05:11;;;;;;;15.50;10.00;;;-9.00;99.90;;;;;;5096674;28;20410;-80
2022/01/12 02:07:37;;;;;;;14.27;10.70;;;-8.60;99.90;;;;;;5098279;28;20402;-80
2022/01/12 02:10:04;;;;;;;22.90;9.53;;;-8.60;99.90;;;;;;5098051;28;20455;-80
2022/01/12 02:12:30;;;;;;;15.07;10.67;;;-8.40;99.90;;;;;;5098284;28;20599;-80
2022/01/12 02:15:01;;;;;;;12.27;9.17;;;-8.70;99.90;;;;;;5097003;28;20419;-81
2022/01/12 02:17:34;;;;;;;16.53;10.57;;;-8.50;99.90;;;;;;5096961;28;20857;-79
2022/01/12 02:36:21;;;;;;;14.47;10.50;;;-6.70;99.90;;;;;;5097866;28;20433;-79
2022/01/12 02:41:32;;;;;;;16.10;10.73;;;-8.10;99.90;;;;;;5096979;28;20766;-80
2022/01/12 02:54:46;;;;;;;15.37;10.40;;;-8.60;99.90;;;;;;5096992;28;20766;-80
2022/01/12 02:57:12;;;;;;;20.73;12.03;;;-7.90;99.90;;;;;;5096979;28;20391;-80
2022/01/12 02:59:47;;;;;;;16.63;11.10;;;-7.90;99.90;;;;;;5096351;28;20451;-79
2022/01/12 03:02:33;;;;;;;13.17;10.10;;;-6.10;99.90;;;;;;5096045;28;20407;-80
2022/01/12 03:07:36;;;;;;;14.43;10.20;;;-7.30;99.90;;;;;;5096416;28;20426;-79
2022/01/12 03:10:04;;;;;;;15.70;10.37;;;-7.70;99.90;;;;;;5095723;28;20696;-79
2022/01/12 03:12:30;;;;;;;15.27;10.60;;;-8.00;99.90;;;;;;5096879;28;20827;-79
2022/01/12 03:14:56;;;;;;;12.53;9.27;;;-8.10;99.90;;;;;;5096175;28;20392;-80
2022/01/12 03:17:21;;;;;;;14.03;10.97;;;-8.60;99.90;;;;;;5097052;28;20551;-79
2022/01/12 03:19:47;;;;;;;19.00;12.13;;;-6.90;99.90;;;;;;5096796;28;20183;-80
2022/01/12 03:22:13;;;;;;;15.50;10.30;;;-8.90;99.90;;;;;;5095765;28;20189;-79
2022/01/12 03:24:39;;;;;;;14.30;9.43;;;-8.30;99.90;;;;;;5095955;28;20171;-79
2022/01/12 03:27:06;;;;;;;14.90;9.60;;;-8.10;99.90;;;;;;5096859;28;20167;-79
2022/01/12 03:29:32;;;;;;;14.57;9.63;;;-8.50;99.90;;;;;;5095388;28;20166;-79
2022/01/12 03:32:00;;;;;;;15.03;12.80;;;-8.90;99.90;;;;;;5095845;28;20439;-79
2022/01/12 03:34:31;;;;;;;16.27;10.10;;;-8.70;99.90;;;;;;5096780;28;20163;-79
2022/01/12 03:39:29;;;;;;;15.50;9.40;;;-8.40;99.90;;;;;;5096317;28;20404;-79
2022/01/12 03:41:55;;;;;;;12.90;9.77;;;-8.40;99.90;;;;;;5094787;28;20960;-79
2022/01/12 03:44:20;;;;;;;14.00;9.60;;;-8.70;99.90;;;;;;5096524;28;20171;-80
2022/01/12 03:46:52;;;;;;;13.43;10.33;;;-8.70;99.90;;;;;;5095263;28;20578;-80
2022/01/12 03:49:19;;;;;;;19.97;12.40;;;-9.10;99.90;;;;;;5095440;28;20584;-79
2022/01/12 03:51:45;;;;;;;17.57;11.13;;;-8.70;99.90;;;;;;5095719;28;20508;-79
2022/01/12 03:54:11;;;;;;;15.93;10.70;;;-8.70;99.90;;;;;;5095211;28;20412;-79
2022/01/12 03:56:37;;;;;;;16.73;12.17;;;-7.00;99.90;;;;;;5095947;28;20892;-79
2022/01/12 03:59:04;;;;;;;20.00;12.50;;;-8.70;99.90;;;;;;5094465;28;20427;-79
2022/01/12 04:01:30;;;;;;;16.07;10.50;;;-9.20;99.90;;;;;;5095038;28;20216;-79
2022/01/12 04:04:05;;;;;;;22.97;13.67;;;-8.80;99.90;;;;;;5096177;28;20460;-78
2022/01/12 04:09:17;;;;;;;17.73;12.43;;;-6.50;99.90;;;;;;5095893;28;20418;-79
2022/01/12 04:11:43;;;;;;;19.00;11.50;;;-8.00;99.90;;;;;;5095755;28;20481;-79
2022/01/12 04:14:11;;;;;;;22.03;13.90;;;-8.10;99.90;;;;;;5095001;28;20427;-81
2022/01/12 04:16:37;;;;;;;18.90;12.40;;;-7.90;99.90;;;;;;5095908;28;20397;-78
2022/01/12 04:19:04;;;;;;;19.30;13.13;;;-8.10;99.90;;;;;;5094154;28;20795;-79
2022/01/12 04:21:31;;;;;;;18.97;13.73;;;-6.20;99.90;;;;;;5095830;28;20819;-79
2022/01/12 04:23:58;;;;;;;17.60;13.10;;;-7.90;99.90;;;;;;5094996;28;20415;-79
2022/01/12 04:26:27;;;;;;;21.47;14.20;;;-5.90;99.90;;;;;;5095648;28;20891;-78
2022/01/12 04:28:53;;;;;;;22.20;12.53;;;-7.80;99.90;;;;;;5095321;28;20716;-78
2022/01/12 04:31:19;;;;;;;20.73;13.43;;;-7.60;99.90;;;;;;5095727;28;20470;-79
2022/01/12 04:33:46;;;;;;;16.33;11.87;;;-5.80;99.90;;;;;;5095578;28;20402;-79
2022/01/12 04:36:13;;;;;;;24.30;14.17;;;-7.70;99.90;;;;;;5094209;28;20203;-79
2022/01/12 04:38:40;;;;;;;20.43;14.30;;;-7.90;99.90;;;;;;5095854;28;20399;-79
2022/01/12 04:41:08;;;;;;;22.00;13.20;;;-7.80;99.90;;;;;;5094391;28;20419;-80
2022/01/12 04:43:36;;;;;;;23.50;13.20;;;-6.00;99.90;;;;;;5094883;28;20448;-80
2022/01/12 04:48:36;;;;;;;20.30;13.67;;;-7.30;99.90;;;;;;5095597;28;20444;-79
2022/01/12 04:51:02;;;;;;;19.83;13.50;;;-8.20;99.90;;;;;;5095707;28;20762;-79
2022/01/12 04:53:30;;;;;;;22.60;15.10;;;-8.10;99.90;;;;;;5093768;28;20933;-79
2022/01/12 04:55:57;;;;;;;22.37;14.03;;;-8.50;99.90;;;;;;5095341;28;20396;-80
2022/01/12 04:58:23;;;;;;;22.53;14.93;;;-8.50;99.90;;;;;;5095615;28;20403;-79
2022/01/12 05:00:51;;;;;;;17.77;13.43;;;-8.30;99.90;;;;;;5095379;28;20514;-79
2022/01/12 05:13:58;;;;;;;28.70;16.27;;;-7.90;99.90;;;;;;5099580;28;20181;-79
2022/01/12 05:16:25;;;;;;;28.97;16.63;;;-7.60;99.90;;;;;;5098609;28;20882;-79
2022/01/12 05:18:53;;;;;;;25.00;14.70;;;-6.00;99.90;;;;;;5099086;28;20467;-80
2022/01/12 05:21:21;;;;;;;23.00;16.63;;;-7.40;99.90;;;;;;5099046;28;20419;-79
2022/01/12 05:23:48;;;;;;;27.07;15.73;;;-5.70;99.90;;;;;;5097594;28;20418;-81
2022/01/12 05:26:14;;;;;;;24.50;15.37;;;-5.30;99.90;;;;;;5098812;28;20411;-80
2022/01/12 05:28:40;;;;;;;24.37;15.27;;;-7.70;99.90;;;;;;5098615;28;20399;-79
2022/01/12 05:31:07;;;;;;;22.83;15.10;;;-7.60;99.90;;;;;;5098719;28;20788;-80
2022/01/12 05:33:34;;;;;;;26.77;16.23;;;-6.30;99.90;;;;;;5097359;28;20407;-80
2022/01/12 05:36:03;;;;;;;21.53;14.70;;;-7.00;99.90;;;;;;5098871;28;20411;-79
2022/01/12 05:38:29;;;;;;;28.67;15.50;;;-4.30;99.90;;;;;;5097976;28;20431;-80
2022/01/12 05:40:58;;;;;;;24.87;15.83;;;-7.50;99.90;;;;;;5097904;28;20418;-80
2022/01/12 05:43:27;;;;;;;21.70;15.60;;;-4.90;99.90;;;;;;5097693;28;20175;-80
2022/01/12 05:45:55;;;;;;;25.77;15.23;;;-6.90;99.90;;;;;;5098621;28;20415;-79
2022/01/12 05:50:49;;;;;;;25.57;14.73;;;-6.60;99.90;;;;;;5098120;28;20457;-79
2022/01/12 05:53:16;;;;;;;28.67;15.70;;;-5.00;99.90;;;;;;5097214;28;20415;-79
2022/01/12 05:55:43;;;;;;;32.27;15.93;;;-6.50;99.90;;;;;;5097398;28;20456;-80
2022/01/12 05:58:09;;;;;;;27.17;15.83;;;-7.20;99.90;;;;;;5097676;28;20407;-79
2022/01/12 06:00:35;;;;;;;24.47;16.00;;;-5.90;99.90;;;;;;5097335;28;20431;-80
2022/01/12 06:03:01;;;;;;;25.80;15.23;;;-6.90;99.90;;;;;;5098311;28;20815;-80
2022/01/12 06:05:28;;;;;;;23.93;15.80;;;-5.40;99.90;;;;;;5098172;28;20456;-80
2022/01/12 06:07:54;;;;;;;27.87;16.07;;;-5.50;99.90;;;;;;5097868;28;20365;-79
2022/01/12 06:10:23;;;;;;;22.37;15.00;;;-7.20;99.90;;;;;;5097964;28;20522;-80
2022/01/12 06:12:52;;;;;;;23.37;14.53;;;-6.90;99.90;;;;;;5097924;28;20352;-80
2022/01/12 06:15:18;;;;;;;27.47;14.80;;;-6.80;99.90;;;;;;5095795;28;20931;-80
2022/01/12 06:17:45;;;;;;;21.87;14.60;;;-6.30;99.90;;;;;;5097072;28;20399;-80
2022/01/12 06:20:10;;;;;;;22.43;14.00;;;-5.90;99.90;;;;;;5097891;28;20411;-79
2022/01/12 06:22:36;;;;;;;22.23;14.13;;;-7.00;99.90;;;;;;5095993;28;20407;-79
2022/01/12 06:25:06;;;;;;;20.33;13.60;;;-6.20;99.90;;;;;;5096883;28;20255;-79
2022/01/12 06:27:34;;;;;;;24.73;14.30;;;-5.40;99.90;;;;;;5096971;28;20566;-79
2022/01/12 06:32:56;;;;;;;25.23;15.63;;;-4.40;99.90;;;;;;5088896;28;20445;-80
2022/01/12 06:35:23;;;;;;;23.00;15.07;;;-4.80;99.90;;;;;;5096120;28;20407;-79
2022/01/12 06:37:50;;;;;;;23.13;13.07;;;-6.50;99.90;;;;;;5097572;28;20406;-79
2022/01/12 06:40:17;;;;;;;22.13;14.07;;;-6.20;99.90;;;;;;5095879;28;20411;-79
2022/01/12 06:42:43;;;;;;;22.57;13.97;;;-4.90;99.90;;;;;;5096462;28;20407;-79
2022/01/12 06:45:10;;;;;;;23.63;14.50;;;-6.20;99.90;;;;;;5097567;28;20399;-79
2022/01/12 06:47:36;;;;;;;16.57;12.03;;;-6.90;99.90;;;;;;5097773;28;20426;-80
2022/01/12 06:50:03;;;;;;;26.10;15.50;;;-4.70;99.90;;;;;;5095420;28;20455;-79
2022/01/12 06:52:29;;;;;;;21.87;13.50;;;-6.70;99.90;;;;;;5097010;28;20437;-79
2022/01/12 06:54:55;;;;;;;20.63;12.53;;;-6.70;99.90;;;;;;5096302;28;20411;-80
2022/01/12 06:57:21;;;;;;;21.53;13.23;;;-6.80;99.90;;;;;;5097513;28;20168;-75
2022/01/12 06:59:47;;;;;;;24.23;14.53;;;-5.00;99.90;;;;;;5096713;28;20875;-75
2022/01/12 07:02:13;;;;;;;24.93;15.70;;;-5.90;99.90;;;;;;5096966;28;20530;-77
2022/01/12 07:04:39;;;;;;;27.13;13.13;;;-7.20;99.90;;;;;;5097229;28;20185;-78
2022/01/12 07:07:05;;;;;;;21.40;13.70;;;-7.30;99.90;;;;;;5096745;28;20163;-77
2022/01/12 07:09:31;;;;;;;21.93;13.67;;;-7.50;99.90;;;;;;5104134;28;20182;-74
2022/01/12 07:11:56;;;;;;;21.23;14.10;;;-7.60;99.90;;;;;;5115678;28;20522;-79
2022/01/12 07:14:22;;;;;;;24.20;14.70;;;-5.70;99.90;;;;;;5117039;28;20401;-76
2022/01/12 07:16:48;;;;;;;24.40;15.47;;;-7.70;99.90;;;;;;5116994;28;20783;-77
2022/01/12 07:19:14;;;;;;;29.30;16.67;;;-6.20;99.90;;;;;;5116283;28;20296;-78
2022/01/12 07:21:40;;;;;;;29.87;17.00;;;-7.30;99.90;;;;;;5116488;28;20578;-76
2022/01/12 07:24:06;;;;;;;26.00;14.80;;;-7.10;99.90;;;;;;5116700;28;20166;-78
2022/01/12 07:26:33;;;;;;;26.20;15.40;;;-6.50;99.90;;;;;;5116329;28;20398;-76
2022/01/12 07:28:59;;;;;;;23.60;14.87;;;-7.40;99.90;;;;;;5116551;28;20493;-78
2022/01/12 07:31:25;;;;;;;28.47;16.23;;;-7.10;99.90;;;;;;5116411;28;20533;-78
2022/01/12 07:33:50;;;;;;;27.87;17.43;;;-7.30;99.90;;;;;;5116467;28;20167;-76
2022/01/12 07:36:17;;;;;;;36.73;16.23;;;-7.30;99.90;;;;;;5116145;28;20604;-76
2022/01/12 07:38:43;;;;;;;32.00;18.43;;;-7.30;99.90;;;;;;5116464;28;20242;-75
2022/01/12 07:41:12;;;;;;;28.00;16.60;;;-7.60;99.90;;;;;;5116492;28;20459;-75
2022/01/12 07:43:37;;;;;;;26.67;16.63;;;-7.20;99.90;;;;;;5101422;28;20407;-77
2022/01/12 07:46:03;;;;;;;29.27;15.43;;;-7.20;99.90;;;;;;5095061;28;20461;-76
2022/01/12 07:48:29;;;;;;;29.50;18.90;;;-6.70;99.90;;;;;;5094952;28;20223;-76
2022/01/12 07:50:55;;;;;;;34.03;17.70;;;-7.10;99.90;;;;;;5092764;28;20191;-75
2022/01/12 07:53:20;;;;;;;35.40;19.40;;;-4.90;99.90;;;;;;5095045;28;20523;-76
2022/01/12 07:55:46;;;;;;;28.70;17.53;;;-4.10;99.90;;;;;;5095820;28;20457;-76
2022/01/12 07:58:12;;;;;;;28.70;19.40;;;-7.10;99.90;;;;;;5094366;28;20178;-78
2022/01/12 08:00:38;;;;;;;30.70;18.10;;;-6.50;99.90;;;;;;5089121;28;20247;-75
2022/01/12 08:03:04;;;;;;;30.60;18.57;;;-7.00;99.90;;;;;;5093903;28;20167;-76
2022/01/12 08:05:29;;;;;;;26.23;16.50;;;-5.70;99.90;;;;;;5092621;28;20261;-76
2022/01/12 08:07:55;;;;;;;33.70;16.13;;;-5.20;99.90;;;;;;5095473;28;20171;-78
2022/01/12 08:10:22;;;;;;;31.60;18.60;;;-5.10;99.90;;;;;;5094928;28;20606;-77
2022/01/12 08:12:48;;;;;;;39.07;20.47;;;-6.70;99.90;;;;;;5095586;28;20169;-76
2022/01/12 08:15:14;;;;;;;32.90;17.77;;;-7.50;99.90;;;;;;5094397;28;20898;-76
2022/01/12 08:17:40;;;;;;;33.03;17.80;;;-7.50;99.90;;;;;;5095627;28;20159;-76
2022/01/12 08:20:10;;;;;;;29.67;18.73;;;-5.70;99.90;;;;;;5094376;28;20702;-77
2022/01/12 08:22:37;;;;;;;41.67;18.83;;;-7.00;99.90;;;;;;5095626;28;20838;-76
2022/01/12 08:25:03;;;;;;;34.57;20.17;;;-6.70;99.90;;;;;;5095744;28;20388;-80
2022/01/12 08:27:29;;;;;;;44.50;22.57;;;-6.50;99.90;;;;;;5093744;28;20846;-75
2022/01/12 08:30:00;;;;;;;35.37;20.00;;;-5.50;99.90;;;;;;5089824;28;20407;-76
2022/01/12 08:32:29;;;;;;;41.57;21.60;;;-6.00;99.90;;;;;;5092599;28;20178;-76
2022/01/12 08:34:57;;;;;;;44.63;21.90;;;-6.50;99.90;;;;;;5095411;28;20850;-76
2022/01/12 08:37:23;;;;;;;45.03;23.83;;;-6.30;99.90;;;;;;5093882;28;20434;-77
2022/01/12 08:39:51;;;;;;;46.87;21.93;;;-6.40;99.90;;;;;;5096678;28;20414;-76
2022/01/12 08:42:17;;;;;;;43.47;23.43;;;-6.30;99.90;;;;;;5099807;28;20391;-77
2022/01/12 08:44:43;;;;;;;43.93;22.27;;;-6.20;99.90;;;;;;5099908;28;20395;-77
2022/01/12 08:47:09;;;;;;;41.63;22.23;;;-6.20;99.90;;;;;;5098340;28;20206;-76
2022/01/12 08:49:35;;;;;;;42.87;21.90;;;-6.60;99.90;;;;;;5096518;28;20657;-77
2022/01/12 08:52:01;;;;;;;44.77;21.67;;;-6.40;99.90;;;;;;5098707;28;20454;-76
2022/01/12 08:54:27;;;;;;;39.57;21.87;;;-6.10;99.90;;;;;;5097870;28;20171;-74
2022/01/12 08:56:53;;;;;;;50.60;25.57;;;-4.40;99.90;;;;;;5098080;28;20163;-75
2022/01/12 08:59:19;;;;;;;48.37;23.53;;;-6.10;99.90;;;;;;5092417;28;20203;-75
2022/01/12 09:01:45;;;;;;;51.73;22.73;;;-4.70;99.90;;;;;;5097658;28;20623;-74
2022/01/12 09:04:11;;;;;;;50.03;25.40;;;-7.10;99.90;;;;;;5098338;28;20170;-75
2022/01/12 09:06:37;;;;;;;54.97;24.97;;;-7.20;99.90;;;;;;5098613;28;20400;-75
2022/01/12 09:09:04;;;;;;;45.67;23.77;;;-6.80;99.90;;;;;;5096468;28;20526;-77
2022/01/12 09:11:30;;;;;;;45.67;21.57;;;-6.60;99.90;;;;;;5097702;28;20450;-76
2022/01/12 09:13:56;;;;;;;49.57;22.77;;;-5.40;99.90;;;;;;5098457;28;20449;-76
2022/01/12 09:16:22;;;;;;;47.63;23.60;;;-4.40;99.90;;;;;;5096932;28;20423;-75
2022/01/12 09:18:48;;;;;;;49.97;24.13;;;-6.40;99.90;;;;;;5097177;28;20167;-75
2022/01/12 09:21:14;;;;;;;48.63;24.40;;;-6.20;99.90;;;;;;5098055;28;20236;-77
2022/01/12 09:23:39;;;;;;;47.20;24.10;;;-6.20;99.90;;;;;;5098310;28;20227;-77
2022/01/12 09:26:06;;;;;;;46.87;23.13;;;-4.90;99.90;;;;;;5098917;28;20395;-76
2022/01/12 09:28:32;;;;;;;50.07;24.53;;;-4.00;99.90;;;;;;5096195;28;20452;-79
2022/01/12 09:30:58;;;;;;;50.07;24.07;;;-7.10;99.90;;;;;;5095890;28;20913;-78
2022/01/12 09:33:25;;;;;;;43.47;24.30;;;-6.80;99.90;;;;;;5096723;28;20853;-79
2022/01/12 09:35:53;;;;;;;45.23;23.50;;;-7.50;99.90;;;;;;5097156;28;20494;-77
2022/01/12 09:38:20;;;;;;;53.73;27.93;;;-6.50;99.90;;;;;;5097352;28;20407;-78
2022/01/12 09:40:46;;;;;;;59.00;28.03;;;-7.70;99.90;;;;;;5095935;28;20423;-77
2022/01/12 09:43:13;;;;;;;56.27;25.13;;;-7.50;99.90;;;;;;5097248;28;20843;-78
2022/01/12 09:45:43;;;;;;;58.80;27.90;;;-6.40;99.90;;;;;;5098138;28;20711;-79
2022/01/12 09:48:10;;;;;;;53.57;25.80;;;-6.50;99.90;;;;;;5097462;28;20396;-80
2022/01/12 09:50:36;;;;;;;50.50;22.67;;;-8.30;99.90;;;;;;5095781;28;20494;-75
2022/01/12 09:53:02;;;;;;;46.60;24.93;;;-6.10;99.90;;;;;;5097088;28;20395;-81
2022/01/12 09:55:28;;;;;;;55.00;24.23;;;-8.50;99.90;;;;;;5098105;28;20417;-80
2022/01/12 09:57:54;;;;;;;54.50;24.20;;;-7.20;99.90;;;;;;5098008;28;20426;-76
2022/01/12 10:00:25;;;;;;;49.00;24.43;;;-5.90;99.90;;;;;;5088069;28;20208;-79
2022/01/12 10:02:51;;;;;;;55.00;27.60;;;-8.20;99.90;;;;;;5097352;28;20411;-79
2022/01/12 10:05:17;;;;;;;49.97;25.93;;;-7.60;99.90;;;;;;5097387;28;20401;-72
2022/01/12 10:07:44;;;;;;;49.67;24.43;;;-8.00;99.90;;;;;;5097790;28;20411;-76
2022/01/12 10:10:15;;;;;;;52.10;24.93;;;-7.30;99.90;;;;;;5096382;28;20514;-76
2022/01/12 10:12:55;;;;;;;47.70;24.53;;;-7.30;99.90;;;;;;5095949;28;20408;-79
2022/01/12 10:15:21;;;;;;;49.33;25.03;;;-8.30;99.90;;;;;;5096421;28;20410;-75
2022/01/12 10:17:47;;;;;;;53.20;24.57;;;-8.00;99.90;;;;;;5097816;28;20490;-75
2022/01/12 10:20:18;;;;;;;52.93;26.80;;;-8.10;99.90;;;;;;5096912;28;20621;-76
2022/01/12 10:22:56;;;;;;;50.63;25.63;;;-7.80;99.90;;;;;;5096766;28;20408;-77
2022/01/12 10:25:22;;;;;;;57.80;27.23;;;-5.80;99.90;;;;;;5097276;28;20419;-76
2022/01/12 10:27:48;;;;;;;51.23;24.73;;;-7.70;99.90;;;;;;5097150;28;20396;-76
2022/01/12 10:30:32;;;;;;;52.73;26.27;;;-6.40;99.90;;;;;;5087989;28;20417;-77
2022/01/12 10:33:09;;;;;;;52.87;26.97;;;-8.30;99.90;;;;;;5095854;28;20411;-77
2022/01/12 10:35:39;;;;;;;56.87;26.67;;;-8.60;99.90;;;;;;5096039;28;20450;-76
2022/01/12 10:38:11;;;;;;;59.83;29.07;;;-8.50;99.90;;;;;;5096548;28;20841;-75
2022/01/12 10:40:45;;;;;;;48.23;24.87;;;-8.00;99.90;;;;;;5094810;28;20417;-76
2022/01/12 10:43:36;;;;;;;63.83;27.43;;;-8.00;99.90;;;;;;5096518;28;20798;-75
2022/01/12 10:46:17;;;;;;;63.97;27.30;;;-8.70;99.90;;;;;;5095686;28;20439;-73
2022/01/12 10:48:46;;;;;;;52.07;28.30;;;-8.80;99.90;;;;;;5095799;28;20788;-76
2022/01/12 10:51:15;;;;;;;50.67;25.03;;;-8.00;99.90;;;;;;5094805;28;20943;-77
2022/01/12 10:53:42;;;;;;;56.03;26.07;;;-8.20;99.90;;;;;;5095915;28;20415;-77
2022/01/12 10:56:11;;;;;;;52.47;26.87;;;-8.40;99.90;;;;;;5096783;28;20403;-74
2022/01/12 10:58:39;;;;;;;55.30;27.53;;;-7.50;99.90;;;;;;5090094;28;20712;-78
2022/01/12 11:01:05;;;;;;;58.17;25.93;;;-8.40;99.90;;;;;;5093088;28;20462;-76
2022/01/12 11:03:31;;;;;;;54.63;27.63;;;-7.90;99.90;;;;;;5096850;28;20411;-76
2022/01/12 11:05:58;;;;;;;58.70;29.13;;;-7.90;99.90;;;;;;5095766;28;20171;-77
2022/01/12 11:08:27;;;;;;;55.53;27.47;;;-7.80;99.90;;;;;;5096292;28;20515;-77
2022/01/12 11:10:55;;;;;;;58.57;26.27;;;-8.10;99.90;;;;;;5095047;28;20455;-79
2022/01/12 11:13:25;;;;;;;48.77;25.60;;;-8.20;99.90;;;;;;5096673;28;20481;-77
2022/01/12 11:15:52;;;;;;;54.10;26.47;;;-8.80;99.90;;;;;;5095391;28;20398;-76
2022/01/12 11:18:30;;;;;;;56.43;26.50;;;-8.20;99.90;;;;;;5095869;28;20405;-76
2022/01/12 11:21:13;;;;;;;45.80;24.33;;;-8.00;99.90;;;;;;5094970;28;20437;-75
2022/01/12 11:23:41;;;;;;;45.93;24.83;;;-7.90;99.90;;;;;;5095411;28;20407;-76
2022/01/12 11:26:27;;;;;;;59.73;25.37;;;-8.30;99.90;;;;;;5095844;28;20414;-77
2022/01/12 11:28:53;;;;;;;52.10;27.13;;;-7.70;99.90;;;;;;5089568;28;20411;-78
2022/01/12 11:31:28;;;;;;;59.17;28.87;;;-6.40;99.90;;;;;;5095232;28;20525;-74
2022/01/12 11:33:54;;;;;;;81.37;42.40;;;-7.90;99.90;;;;;;5094711;28;20492;-75
2022/01/12 11:36:35;;;;;;;58.47;28.60;;;-7.80;99.90;;;;;;5095134;28;20475;-74
2022/01/12 11:39:08;;;;;;;66.57;30.20;;;-7.20;99.90;;;;;;5094657;28;20199;-73
2022/01/12 11:41:36;;;;;;;67.03;26.80;;;-5.30;99.90;;;;;;5094906;28;20194;-79
2022/01/12 11:44:01;;;;;;;61.77;28.77;;;-7.80;99.90;;;;;;5094358;28;20449;-77
2022/01/12 11:46:51;;;;;;;61.63;30.83;;;-7.50;99.90;;;;;;5095609;28;20403;-77
2022/01/12 11:49:40;;;;;;;62.20;29.73;;;-7.60;99.90;;;;;;5095031;28;20752;-75
2022/01/12 11:52:26;;;;;;;63.13;30.80;;;-8.80;99.90;;;;;;5094800;28;20504;-75
2022/01/12 11:55:06;;;;;;;56.50;28.47;;;-8.40;99.90;;;;;;5094302;28;20403;-76
2022/01/12 11:57:35;;;;;;;60.23;29.23;;;-8.20;99.90;;;;;;5095032;28;20403;-75
2022/01/12 12:00:05;;;;;;;60.57;29.87;;;-5.90;99.90;;;;;;5087581;28;20639;-75
2022/01/12 12:02:34;;;;;;;63.77;30.80;;;-7.30;99.90;;;;;;5093458;28;20175;-74
2022/01/12 12:05:08;;;;;;;63.60;32.13;;;-8.00;99.90;;;;;;5089509;28;20392;-73
2022/01/12 12:07:53;;;;;;;62.63;32.70;;;-5.00;99.90;;;;;;5095564;28;20387;-77
2022/01/12 12:10:25;;;;;;;71.77;32.67;;;-7.40;99.90;;;;;;5095034;28;20589;-74
2022/01/12 12:12:56;;;;;;;59.70;29.53;;;-7.20;99.90;;;;;;5095317;28;20391;-74
2022/01/12 12:15:25;;;;;;;57.97;28.03;;;-8.00;99.90;;;;;;5095127;28;20155;-75
2022/01/12 12:17:52;;;;;;;57.37;28.57;;;-7.20;99.90;;;;;;5095087;28;20433;-79
2022/01/12 12:20:21;;;;;;;63.37;30.97;;;-7.30;99.90;;;;;;5093928;28;20189;-74
2022/01/12 12:22:50;;;;;;;59.83;30.93;;;-8.20;99.90;;;;;;5095751;28;20291;-77
2022/01/12 12:25:25;;;;;;;65.53;30.27;;;-7.80;99.90;;;;;;5094165;28;20250;-75
2022/01/12 12:27:55;;;;;;;67.43;30.83;;;-7.30;99.90;;;;;;5094906;28;20158;-74
2022/01/12 12:30:23;;;;;;;69.90;31.87;;;-5.50;99.90;;;;;;5076288;28;20171;-75
2022/01/12 12:32:58;;;;;;;63.27;31.67;;;-7.50;99.90;;;;;;5075327;28;20253;-75
2022/01/12 12:35:28;;;;;;;49.27;27.70;;;-7.60;99.90;;;;;;5092802;28;20166;-76
2022/01/12 12:37:56;;;;;;;48.03;26.73;;;-7.40;99.90;;;;;;5094141;28;20267;-77
2022/01/12 12:40:32;;;;;;;46.67;24.63;;;-7.40;99.90;;;;;;5092478;28;20631;-78
2022/01/12 12:43:08;;;;;;;52.30;27.57;;;-5.30;99.90;;;;;;5094855;28;20170;-79
2022/01/12 12:45:51;;;;;;;54.13;28.73;;;-7.40;99.90;;;;;;5093864;28;20163;-80
2022/01/12 12:48:26;;;;;;;57.03;28.57;;;-8.30;99.90;;;;;;5094548;28;20155;-78
2022/01/12 12:51:02;;;;;;;52.27;28.83;;;-8.70;99.90;;;;;;5093981;28;20287;-78
2022/01/12 12:53:30;;;;;;;58.67;29.37;;;-7.90;99.90;;;;;;5094019;28;20265;-79
2022/01/12 12:55:56;;;;;;;51.00;29.00;;;-4.70;99.90;;;;;;5093295;28;20171;-78
2022/01/12 12:58:25;;;;;;;48.80;25.17;;;-6.20;99.90;;;;;;5095039;28;20273;-79
2022/01/12 13:00:51;;;;;;;48.87;26.37;;;-4.80;99.90;;;;;;5094623;28;20194;-79
2022/01/12 13:03:17;;;;;;;39.00;22.87;;;-6.80;99.90;;;;;;5095244;28;20167;-80
2022/01/12 13:05:43;;;;;;;50.60;25.03;;;-5.40;99.90;;;;;;5094768;28;20198;-79
2022/01/12 13:08:11;;;;;;;52.03;25.87;;;-7.20;99.90;;;;;;5093716;28;20529;-79
2022/01/12 13:10:38;;;;;;;47.13;26.20;;;-7.00;99.90;;;;;;5093430;28;20512;-81
2022/01/12 13:13:08;;;;;;;47.90;28.53;;;-4.80;99.90;;;;;;5095181;28;20163;-78
2022/01/12 13:15:40;;;;;;;47.93;25.60;;;-7.30;99.90;;;;;;5094922;28;20170;-81
2022/01/12 13:18:07;;;;;;;50.73;27.80;;;-7.00;99.90;;;;;;5094572;28;20570;-79
2022/01/12 13:23:21;;;;;;;40.87;23.70;;;-7.60;99.90;;;;;;5095047;28;20601;-78
2022/01/12 13:26:01;;;;;;;50.73;26.43;;;-6.20;99.90;;;;;;5097625;28;20167;-78
2022/01/12 13:28:27;;;;;;;50.53;26.67;;;-5.40;99.90;;;;;;5094780;28;20181;-78
2022/01/12 13:31:02;;;;;;;44.70;24.47;;;-7.10;99.90;;;;;;5093147;28;20616;-77
2022/01/12 13:33:37;;;;;;;39.83;23.83;;;-6.60;99.90;;;;;;5098117;28;20170;-79
2022/01/12 13:36:21;;;;;;;37.17;21.10;;;-6.30;99.90;;;;;;5098105;28;20166;-78
2022/01/12 13:39:04;;;;;;;36.30;22.37;;;-7.00;99.90;;;;;;5098588;28;20155;-80
2022/01/12 13:41:46;;;;;;;44.33;21.73;;;-7.00;99.90;;;;;;5098649;28;20179;-83
2022/01/12 13:44:17;;;;;;;39.87;24.03;;;-7.40;99.90;;;;;;5093733;28;20182;-77
2022/01/12 13:47:06;;;;;;;44.03;25.17;;;-7.80;99.90;;;;;;5098494;28;20194;-78
2022/01/12 13:49:32;;;;;;;37.43;21.47;;;-7.30;99.90;;;;;;5107900;28;20193;-80
2022/01/12 13:52:04;;;;;;;39.33;23.33;;;-7.30;99.90;;;;;;5097283;28;20199;-81
2022/01/12 13:54:36;;;;;;;41.57;22.87;;;-6.50;99.90;;;;;;5098067;28;20171;-78
2022/01/12 13:57:02;;;;;;;46.07;22.17;;;-7.70;99.90;;;;;;5096545;28;20167;-78
2022/01/12 13:59:30;;;;;;;45.70;24.40;;;-7.30;99.90;;;;;;5097296;28;20259;-75
2022/01/12 14:01:57;;;;;;;42.03;23.30;;;-5.80;99.90;;;;;;5098110;28;20151;-76